Weather at National Guard Helipad (38x)

Public forecast

Using degrees Celsius for public forecast. Weather courtesy of forecast.io.

Closest aviation weather report (METAR) to National Guard Helipad (38x)

Report is more than 6 hours old.

Closest report is Riyadh Air Base, 16.3 nm (30.1 km) NNE. Retrieved 2022/02/28 07:00 UTC (6 months ago):

OERY 280700Z 03010KT CAVOK 19/M01 Q1023

Closest aviation forecast (TAF) to National Guard Helipad (38x)

Forecast is more than 12 hours old.

Closest forecast is Riyadh Air Base, 16.3 nm (30.1 km) NNE. Retrieved 2021-08-18 00:03 UTC (12 months ago):

TAF OERY 172300Z 1800/1906 VRB03KT CAVOK BECMG 1808/1810 16012KT BECMG 1821/1823 VRB03KT